sensor_id;sensor_type;location;lat;lon;timestamp;P1;durP1;ratioP1;P2;durP2;ratioP2
52854;SDS011;38719;51.418;7.286;2023-06-14T00:01:51;9.50;;;6.70;;
52854;SDS011;38719;51.418;7.286;2023-06-14T00:04:18;8.23;;;6.43;;
52854;SDS011;38719;51.418;7.286;2023-06-14T00:06:47;10.30;;;6.38;;
52854;SDS011;38719;51.418;7.286;2023-06-14T00:09:15;10.15;;;6.38;;
52854;SDS011;38719;51.418;7.286;2023-06-14T00:11:43;11.00;;;6.60;;
52854;SDS011;38719;51.418;7.286;2023-06-14T00:14:11;8.27;;;6.28;;
52854;SDS011;38719;51.418;7.286;2023-06-14T00:16:40;8.98;;;6.47;;
52854;SDS011;38719;51.418;7.286;2023-06-14T00:19:09;9.23;;;6.72;;
52854;SDS011;38719;51.418;7.286;2023-06-14T00:21:37;8.05;;;6.30;;
52854;SDS011;38719;51.418;7.286;2023-06-14T00:24:05;8.35;;;6.22;;
52854;SDS011;38719;51.418;7.286;2023-06-14T00:26:32;8.15;;;6.03;;
52854;SDS011;38719;51.418;7.286;2023-06-14T00:29:00;10.75;;;6.50;;
52854;SDS011;38719;51.418;7.286;2023-06-14T00:31:28;8.65;;;6.13;;
52854;SDS011;38719;51.418;7.286;2023-06-14T00:33:57;7.18;;;5.32;;
52854;SDS011;38719;51.418;7.286;2023-06-14T00:36:24;10.65;;;6.60;;
52854;SDS011;38719;51.418;7.286;2023-06-14T00:38:52;9.60;;;6.65;;
52854;SDS011;38719;51.418;7.286;2023-06-14T00:41:19;10.85;;;6.38;;
52854;SDS011;38719;51.418;7.286;2023-06-14T00:43:47;9.02;;;6.72;;
52854;SDS011;38719;51.418;7.286;2023-06-14T00:46:15;13.40;;;6.68;;
52854;SDS011;38719;51.418;7.286;2023-06-14T00:48:42;10.30;;;6.32;;
52854;SDS011;38719;51.418;7.286;2023-06-14T00:51:11;8.38;;;5.88;;
52854;SDS011;38719;51.418;7.286;2023-06-14T00:53:39;18.45;;;6.85;;
52854;SDS011;38719;51.418;7.286;2023-06-14T00:56:12;12.25;;;6.38;;
52854;SDS011;38719;51.418;7.286;2023-06-14T00:58:41;10.75;;;6.68;;
52854;SDS011;38719;51.418;7.286;2023-06-14T01:01:09;8.23;;;6.38;;
52854;SDS011;38719;51.418;7.286;2023-06-14T01:03:37;9.60;;;6.90;;
52854;SDS011;38719;51.418;7.286;2023-06-14T01:06:13;14.85;;;6.40;;
52854;SDS011;38719;51.418;7.286;2023-06-14T01:08:56;9.15;;;6.35;;
52854;SDS011;38719;51.418;7.286;2023-06-14T01:11:31;12.65;;;6.15;;
52854;SDS011;38719;51.418;7.286;2023-06-14T01:14:03;9.93;;;5.82;;
52854;SDS011;38719;51.418;7.286;2023-06-14T01:16:32;8.55;;;6.68;;
52854;SDS011;38719;51.418;7.286;2023-06-14T01:19:02;10.68;;;6.07;;
52854;SDS011;38719;51.418;7.286;2023-06-14T01:21:32;8.73;;;6.72;;
52854;SDS011;38719;51.418;7.286;2023-06-14T01:24:09;9.23;;;6.13;;
52854;SDS011;38719;51.418;7.286;2023-06-14T01:26:37;7.78;;;6.28;;
52854;SDS011;38719;51.418;7.286;2023-06-14T01:29:11;12.40;;;7.45;;
52854;SDS011;38719;51.418;7.286;2023-06-14T01:31:42;11.73;;;7.35;;
52854;SDS011;38719;51.418;7.286;2023-06-14T01:34:11;9.95;;;7.40;;
52854;SDS011;38719;51.418;7.286;2023-06-14T01:36:39;13.52;;;8.27;;
52854;SDS011;38719;51.418;7.286;2023-06-14T01:39:09;10.23;;;6.50;;
52854;SDS011;38719;51.418;7.286;2023-06-14T01:41:40;11.68;;;7.13;;
52854;SDS011;38719;51.418;7.286;2023-06-14T01:44:08;10.57;;;6.97;;
52854;SDS011;38719;51.418;7.286;2023-06-14T01:46:36;11.65;;;6.93;;
52854;SDS011;38719;51.418;7.286;2023-06-14T01:49:04;8.93;;;6.28;;
52854;SDS011;38719;51.418;7.286;2023-06-14T01:51:31;12.88;;;6.47;;
52854;SDS011;38719;51.418;7.286;2023-06-14T01:53:59;13.07;;;6.18;;
52854;SDS011;38719;51.418;7.286;2023-06-14T01:56:28;7.63;;;5.95;;
52854;SDS011;38719;51.418;7.286;2023-06-14T01:58:56;14.70;;;6.18;;
52854;SDS011;38719;51.418;7.286;2023-06-14T02:01:23;9.68;;;5.88;;
52854;SDS011;38719;51.418;7.286;2023-06-14T02:03:51;8.02;;;6.00;;
52854;SDS011;38719;51.418;7.286;2023-06-14T02:06:19;10.10;;;5.93;;
52854;SDS011;38719;51.418;7.286;2023-06-14T02:08:47;8.15;;;5.75;;
52854;SDS011;38719;51.418;7.286;2023-06-14T02:11:14;6.85;;;5.95;;
52854;SDS011;38719;51.418;7.286;2023-06-14T02:13:44;12.30;;;5.85;;
52854;SDS011;38719;51.418;7.286;2023-06-14T02:16:11;8.88;;;6.03;;
52854;SDS011;38719;51.418;7.286;2023-06-14T02:18:40;10.38;;;6.18;;
52854;SDS011;38719;51.418;7.286;2023-06-14T02:21:08;7.32;;;5.78;;
52854;SDS011;38719;51.418;7.286;2023-06-14T02:23:35;9.27;;;5.88;;
52854;SDS011;38719;51.418;7.286;2023-06-14T02:26:03;11.52;;;6.05;;
52854;SDS011;38719;51.418;7.286;2023-06-14T02:28:31;10.30;;;5.65;;
52854;SDS011;38719;51.418;7.286;2023-06-14T02:31:00;9.68;;;6.20;;
52854;SDS011;38719;51.418;7.286;2023-06-14T02:33:27;11.25;;;6.43;;
52854;SDS011;38719;51.418;7.286;2023-06-14T02:35:55;9.63;;;5.53;;
52854;SDS011;38719;51.418;7.286;2023-06-14T02:38:23;13.82;;;6.00;;
52854;SDS011;38719;51.418;7.286;2023-06-14T02:40:50;17.88;;;6.38;;
52854;SDS011;38719;51.418;7.286;2023-06-14T02:43:18;7.78;;;5.90;;
52854;SDS011;38719;51.418;7.286;2023-06-14T02:45:46;11.55;;;7.88;;
52854;SDS011;38719;51.418;7.286;2023-06-14T02:48:15;13.00;;;6.28;;
52854;SDS011;38719;51.418;7.286;2023-06-14T02:50:42;11.52;;;5.90;;
52854;SDS011;38719;51.418;7.286;2023-06-14T02:53:10;8.32;;;5.75;;
52854;SDS011;38719;51.418;7.286;2023-06-14T02:55:38;10.65;;;5.60;;
52854;SDS011;38719;51.418;7.286;2023-06-14T02:58:06;10.85;;;6.15;;
52854;SDS011;38719;51.418;7.286;2023-06-14T03:00:34;7.78;;;5.88;;
52854;SDS011;38719;51.418;7.286;2023-06-14T03:03:02;11.45;;;5.70;;
52854;SDS011;38719;51.418;7.286;2023-06-14T03:05:32;8.18;;;5.97;;
52854;SDS011;38719;51.418;7.286;2023-06-14T03:08:00;10.75;;;6.43;;
52854;SDS011;38719;51.418;7.286;2023-06-14T03:10:27;7.95;;;6.30;;
52854;SDS011;38719;51.418;7.286;2023-06-14T03:12:55;14.82;;;6.07;;
52854;SDS011;38719;51.418;7.286;2023-06-14T03:15:23;12.27;;;6.07;;
52854;SDS011;38719;51.418;7.286;2023-06-14T03:17:51;8.02;;;5.75;;
52854;SDS011;38719;51.418;7.286;2023-06-14T03:20:20;9.95;;;5.68;;
52854;SDS011;38719;51.418;7.286;2023-06-14T03:22:48;9.32;;;6.43;;
52854;SDS011;38719;51.418;7.286;2023-06-14T03:25:16;7.10;;;5.85;;
52854;SDS011;38719;51.418;7.286;2023-06-14T03:27:44;12.85;;;5.47;;
52854;SDS011;38719;51.418;7.286;2023-06-14T03:30:12;12.43;;;6.55;;
52854;SDS011;38719;51.418;7.286;2023-06-14T03:32:41;10.00;;;6.25;;
52854;SDS011;38719;51.418;7.286;2023-06-14T03:35:08;13.38;;;6.30;;
52854;SDS011;38719;51.418;7.286;2023-06-14T03:37:43;10.23;;;6.13;;
52854;SDS011;38719;51.418;7.286;2023-06-14T03:40:12;12.95;;;6.05;;
52854;SDS011;38719;51.418;7.286;2023-06-14T03:42:43;11.57;;;6.45;;
52854;SDS011;38719;51.418;7.286;2023-06-14T03:45:11;11.88;;;6.50;;
52854;SDS011;38719;51.418;7.286;2023-06-14T03:47:38;19.17;;;6.72;;
52854;SDS011;38719;51.418;7.286;2023-06-14T03:50:06;13.57;;;6.13;;
52854;SDS011;38719;51.418;7.286;2023-06-14T03:52:34;10.98;;;5.63;;
52854;SDS011;38719;51.418;7.286;2023-06-14T03:55:01;9.68;;;5.20;;
52854;SDS011;38719;51.418;7.286;2023-06-14T03:57:33;15.48;;;5.53;;
52854;SDS011;38719;51.418;7.286;2023-06-14T04:00:01;8.02;;;4.85;;
52854;SDS011;38719;51.418;7.286;2023-06-14T04:02:31;8.90;;;5.22;;
52854;SDS011;38719;51.418;7.286;2023-06-14T04:04:59;10.73;;;5.60;;
52854;SDS011;38719;51.418;7.286;2023-06-14T04:07:37;11.15;;;5.30;;
52854;SDS011;38719;51.418;7.286;2023-06-14T04:10:06;10.27;;;4.85;;
52854;SDS011;38719;51.418;7.286;2023-06-14T04:12:36;6.95;;;4.78;;
52854;SDS011;38719;51.418;7.286;2023-06-14T04:15:04;8.93;;;4.60;;
52854;SDS011;38719;51.418;7.286;2023-06-14T04:17:46;6.65;;;5.18;;
52854;SDS011;38719;51.418;7.286;2023-06-14T04:20:14;9.00;;;4.65;;
52854;SDS011;38719;51.418;7.286;2023-06-14T04:22:43;6.68;;;5.03;;
52854;SDS011;38719;51.418;7.286;2023-06-14T04:25:10;6.00;;;4.57;;
52854;SDS011;38719;51.418;7.286;2023-06-14T04:27:39;6.32;;;4.55;;
52854;SDS011;38719;51.418;7.286;2023-06-14T04:30:08;11.25;;;4.85;;
52854;SDS011;38719;51.418;7.286;2023-06-14T04:32:36;5.63;;;4.70;;
52854;SDS011;38719;51.418;7.286;2023-06-14T04:35:05;8.63;;;4.90;;
52854;SDS011;38719;51.418;7.286;2023-06-14T04:37:34;8.50;;;4.93;;
52854;SDS011;38719;51.418;7.286;2023-06-14T04:40:07;6.63;;;4.82;;
52854;SDS011;38719;51.418;7.286;2023-06-14T04:42:39;9.80;;;4.80;;
52854;SDS011;38719;51.418;7.286;2023-06-14T04:45:10;8.45;;;5.00;;
52854;SDS011;38719;51.418;7.286;2023-06-14T04:47:39;8.68;;;4.57;;
52854;SDS011;38719;51.418;7.286;2023-06-14T04:50:08;10.70;;;4.60;;
52854;SDS011;38719;51.418;7.286;2023-06-14T04:52:39;6.70;;;4.97;;
52854;SDS011;38719;51.418;7.286;2023-06-14T04:55:07;6.72;;;4.35;;
52854;SDS011;38719;51.418;7.286;2023-06-14T04:57:35;9.93;;;5.28;;
52854;SDS011;38719;51.418;7.286;2023-06-14T05:00:07;9.43;;;4.75;;
52854;SDS011;38719;51.418;7.286;2023-06-14T05:02:38;6.35;;;4.65;;
52854;SDS011;38719;51.418;7.286;2023-06-14T05:05:06;8.73;;;5.05;;
52854;SDS011;38719;51.418;7.286;2023-06-14T05:07:35;10.10;;;4.80;;
52854;SDS011;38719;51.418;7.286;2023-06-14T05:10:07;11.35;;;5.50;;
52854;SDS011;38719;51.418;7.286;2023-06-14T05:12:35;12.68;;;5.05;;
52854;SDS011;38719;51.418;7.286;2023-06-14T05:15:03;6.10;;;4.78;;
52854;SDS011;38719;51.418;7.286;2023-06-14T05:17:33;7.00;;;4.20;;
52854;SDS011;38719;51.418;7.286;2023-06-14T05:20:02;7.85;;;4.85;;
52854;SDS011;38719;51.418;7.286;2023-06-14T05:22:31;9.90;;;5.10;;
52854;SDS011;38719;51.418;7.286;2023-06-14T05:24:58;10.02;;;4.63;;
52854;SDS011;38719;51.418;7.286;2023-06-14T05:27:26;9.73;;;4.85;;
52854;SDS011;38719;51.418;7.286;2023-06-14T05:29:54;17.13;;;4.43;;
52854;SDS011;38719;51.418;7.286;2023-06-14T05:32:24;22.80;;;5.15;;
52854;SDS011;38719;51.418;7.286;2023-06-14T05:34:53;15.55;;;4.70;;
52854;SDS011;38719;51.418;7.286;2023-06-14T05:37:21;7.00;;;4.70;;
52854;SDS011;38719;51.418;7.286;2023-06-14T05:39:48;9.32;;;4.43;;
52854;SDS011;38719;51.418;7.286;2023-06-14T05:42:16;12.73;;;4.75;;
52854;SDS011;38719;51.418;7.286;2023-06-14T05:44:43;13.10;;;4.43;;
52854;SDS011;38719;51.418;7.286;2023-06-14T05:47:11;6.20;;;4.10;;
52854;SDS011;38719;51.418;7.286;2023-06-14T05:49:39;9.25;;;4.50;;
52854;SDS011;38719;51.418;7.286;2023-06-14T05:52:08;10.43;;;4.45;;
52854;SDS011;38719;51.418;7.286;2023-06-14T05:54:36;5.30;;;4.30;;
52854;SDS011;38719;51.418;7.286;2023-06-14T05:57:03;9.40;;;4.10;;
52854;SDS011;38719;51.418;7.286;2023-06-14T05:59:32;7.68;;;4.22;;
52854;SDS011;38719;51.418;7.286;2023-06-14T06:02:00;9.93;;;4.05;;
52854;SDS011;38719;51.418;7.286;2023-06-14T06:04:28;6.30;;;3.88;;
52854;SDS011;38719;51.418;7.286;2023-06-14T06:06:55;9.55;;;4.35;;
52854;SDS011;38719;51.418;7.286;2023-06-14T06:09:24;8.35;;;4.35;;
52854;SDS011;38719;51.418;7.286;2023-06-14T06:11:52;8.63;;;4.15;;
52854;SDS011;38719;51.418;7.286;2023-06-14T06:14:19;9.70;;;4.30;;
52854;SDS011;38719;51.418;7.286;2023-06-14T06:16:47;9.85;;;4.10;;
52854;SDS011;38719;51.418;7.286;2023-06-14T06:19:15;8.85;;;3.80;;
52854;SDS011;38719;51.418;7.286;2023-06-14T06:21:43;10.07;;;3.95;;
52854;SDS011;38719;51.418;7.286;2023-06-14T06:24:10;9.45;;;5.22;;
52854;SDS011;38719;51.418;7.286;2023-06-14T06:26:39;11.20;;;4.55;;
52854;SDS011;38719;51.418;7.286;2023-06-14T06:29:07;9.43;;;4.18;;
52854;SDS011;38719;51.418;7.286;2023-06-14T06:31:34;6.43;;;3.67;;
52854;SDS011;38719;51.418;7.286;2023-06-14T06:34:02;4.93;;;3.53;;
52854;SDS011;38719;51.418;7.286;2023-06-14T06:36:29;5.25;;;3.30;;
52854;SDS011;38719;51.418;7.286;2023-06-14T06:38:57;6.32;;;3.35;;
52854;SDS011;38719;51.418;7.286;2023-06-14T06:41:25;8.23;;;3.00;;
52854;SDS011;38719;51.418;7.286;2023-06-14T06:43:54;6.57;;;3.40;;
52854;SDS011;38719;51.418;7.286;2023-06-14T06:46:21;5.00;;;2.85;;
52854;SDS011;38719;51.418;7.286;2023-06-14T06:48:49;10.98;;;3.00;;
52854;SDS011;38719;51.418;7.286;2023-06-14T06:51:17;4.32;;;2.92;;
52854;SDS011;38719;51.418;7.286;2023-06-14T06:53:47;4.03;;;2.88;;
52854;SDS011;38719;51.418;7.286;2023-06-14T06:56:19;8.65;;;2.80;;
52854;SDS011;38719;51.418;7.286;2023-06-14T06:58:49;4.05;;;2.78;;
52854;SDS011;38719;51.418;7.286;2023-06-14T07:01:18;3.58;;;2.70;;
52854;SDS011;38719;51.418;7.286;2023-06-14T07:03:46;5.18;;;2.95;;
52854;SDS011;38719;51.418;7.286;2023-06-14T07:06:13;6.53;;;3.40;;
52854;SDS011;38719;51.418;7.286;2023-06-14T07:08:44;6.70;;;3.28;;
52854;SDS011;38719;51.418;7.286;2023-06-14T07:11:14;9.38;;;3.10;;
52854;SDS011;38719;51.418;7.286;2023-06-14T07:13:41;4.88;;;3.03;;
52854;SDS011;38719;51.418;7.286;2023-06-14T07:16:09;7.95;;;3.30;;
52854;SDS011;38719;51.418;7.286;2023-06-14T07:18:38;3.55;;;3.25;;
52854;SDS011;38719;51.418;7.286;2023-06-14T07:21:06;4.32;;;2.97;;
52854;SDS011;38719;51.418;7.286;2023-06-14T07:23:33;4.40;;;3.20;;
52854;SDS011;38719;51.418;7.286;2023-06-14T07:26:01;5.95;;;3.28;;
52854;SDS011;38719;51.418;7.286;2023-06-14T07:28:29;7.10;;;3.30;;
52854;SDS011;38719;51.418;7.286;2023-06-14T07:30:56;5.30;;;2.70;;
52854;SDS011;38719;51.418;7.286;2023-06-14T07:33:24;5.43;;;2.95;;
52854;SDS011;38719;51.418;7.286;2023-06-14T07:35:53;5.70;;;2.60;;
52854;SDS011;38719;51.418;7.286;2023-06-14T07:38:21;4.88;;;3.22;;
52854;SDS011;38719;51.418;7.286;2023-06-14T07:40:48;5.93;;;3.00;;
52854;SDS011;38719;51.418;7.286;2023-06-14T07:43:16;4.97;;;2.90;;
52854;SDS011;38719;51.418;7.286;2023-06-14T07:45:46;6.03;;;2.63;;
52854;SDS011;38719;51.418;7.286;2023-06-14T07:48:31;3.00;;;2.70;;
52854;SDS011;38719;51.418;7.286;2023-06-14T07:51:00;6.53;;;2.80;;
52854;SDS011;38719;51.418;7.286;2023-06-14T07:53:28;5.78;;;3.00;;
52854;SDS011;38719;51.418;7.286;2023-06-14T07:55:56;4.22;;;2.83;;
52854;SDS011;38719;51.418;7.286;2023-06-14T07:58:24;5.30;;;3.10;;
52854;SDS011;38719;51.418;7.286;2023-06-14T08:00:52;3.83;;;3.00;;
52854;SDS011;38719;51.418;7.286;2023-06-14T08:03:19;6.70;;;3.28;;
52854;SDS011;38719;51.418;7.286;2023-06-14T08:05:48;4.70;;;3.67;;
52854;SDS011;38719;51.418;7.286;2023-06-14T08:08:17;3.75;;;2.80;;
52854;SDS011;38719;51.418;7.286;2023-06-14T08:10:45;14.55;;;3.20;;
52854;SDS011;38719;51.418;7.286;2023-06-14T08:13:12;4.50;;;3.17;;
52854;SDS011;38719;51.418;7.286;2023-06-14T08:15:40;6.35;;;2.80;;
52854;SDS011;38719;51.418;7.286;2023-06-14T08:18:07;3.22;;;2.53;;
52854;SDS011;38719;51.418;7.286;2023-06-14T08:20:35;4.05;;;2.80;;
52854;SDS011;38719;51.418;7.286;2023-06-14T08:23:03;5.13;;;2.70;;
52854;SDS011;38719;51.418;7.286;2023-06-14T08:25:32;5.57;;;2.70;;
52854;SDS011;38719;51.418;7.286;2023-06-14T08:28:00;5.28;;;2.75;;
52854;SDS011;38719;51.418;7.286;2023-06-14T08:30:27;4.00;;;2.40;;
52854;SDS011;38719;51.418;7.286;2023-06-14T08:32:55;2.75;;;2.50;;
52854;SDS011;38719;51.418;7.286;2023-06-14T08:35:39;6.95;;;3.00;;
52854;SDS011;38719;51.418;7.286;2023-06-14T08:38:07;4.00;;;3.08;;
52854;SDS011;38719;51.418;7.286;2023-06-14T08:40:36;3.55;;;2.60;;
52854;SDS011;38719;51.418;7.286;2023-06-14T08:43:05;6.20;;;3.08;;
52854;SDS011;38719;51.418;7.286;2023-06-14T08:45:33;2.80;;;2.22;;
52854;SDS011;38719;51.418;7.286;2023-06-14T08:48:01;3.30;;;2.63;;
52854;SDS011;38719;51.418;7.286;2023-06-14T08:50:29;2.92;;;2.42;;
52854;SDS011;38719;51.418;7.286;2023-06-14T08:53:01;2.92;;;2.30;;
52854;SDS011;38719;51.418;7.286;2023-06-14T08:55:31;4.22;;;2.30;;
52854;SDS011;38719;51.418;7.286;2023-06-14T08:58:04;3.70;;;2.60;;
52854;SDS011;38719;51.418;7.286;2023-06-14T09:00:32;4.28;;;2.80;;
52854;SDS011;38719;51.418;7.286;2023-06-14T09:03:00;4.90;;;3.00;;
52854;SDS011;38719;51.418;7.286;2023-06-14T09:05:29;4.82;;;2.40;;
52854;SDS011;38719;51.418;7.286;2023-06-14T09:07:57;3.53;;;2.55;;
52854;SDS011;38719;51.418;7.286;2023-06-14T09:10:31;2.45;;;2.25;;
52854;SDS011;38719;51.418;7.286;2023-06-14T09:13:00;5.43;;;2.55;;
52854;SDS011;38719;51.418;7.286;2023-06-14T09:15:30;2.50;;;2.30;;
52854;SDS011;38719;51.418;7.286;2023-06-14T09:17:59;3.30;;;2.50;;
52854;SDS011;38719;51.418;7.286;2023-06-14T09:20:29;2.53;;;2.15;;
52854;SDS011;38719;51.418;7.286;2023-06-14T09:22:57;5.45;;;2.53;;
52854;SDS011;38719;51.418;7.286;2023-06-14T09:25:25;4.95;;;2.47;;
52854;SDS011;38719;51.418;7.286;2023-06-14T09:28:05;3.15;;;2.05;;
52854;SDS011;38719;51.418;7.286;2023-06-14T09:30:36;9.23;;;2.25;;
52854;SDS011;38719;51.418;7.286;2023-06-14T09:33:05;12.25;;;2.55;;
52854;SDS011;38719;51.418;7.286;2023-06-14T09:35:33;3.40;;;1.92;;
52854;SDS011;38719;51.418;7.286;2023-06-14T09:38:01;4.82;;;1.90;;
52854;SDS011;38719;51.418;7.286;2023-06-14T09:40:28;3.63;;;2.17;;
52854;SDS011;38719;51.418;7.286;2023-06-14T09:43:02;5.50;;;2.17;;
52854;SDS011;38719;51.418;7.286;2023-06-14T09:45:32;1.90;;;1.75;;
52854;SDS011;38719;51.418;7.286;2023-06-14T09:48:02;6.43;;;2.20;;
52854;SDS011;38719;51.418;7.286;2023-06-14T09:50:33;6.40;;;2.28;;
52854;SDS011;38719;51.418;7.286;2023-06-14T09:53:02;4.43;;;2.25;;
52854;SDS011;38719;51.418;7.286;2023-06-14T09:55:33;4.78;;;2.22;;
52854;SDS011;38719;51.418;7.286;2023-06-14T09:58:04;3.55;;;2.50;;
52854;SDS011;38719;51.418;7.286;2023-06-14T10:00:34;2.60;;;2.20;;
52854;SDS011;38719;51.418;7.286;2023-06-14T10:03:06;4.43;;;2.20;;
52854;SDS011;38719;51.418;7.286;2023-06-14T10:05:39;4.13;;;2.42;;
52854;SDS011;38719;51.418;7.286;2023-06-14T10:08:09;2.53;;;2.33;;
52854;SDS011;38719;51.418;7.286;2023-06-14T10:10:39;4.38;;;2.40;;
52854;SDS011;38719;51.418;7.286;2023-06-14T10:13:07;3.25;;;2.30;;
52854;SDS011;38719;51.418;7.286;2023-06-14T10:15:40;4.13;;;2.10;;
52854;SDS011;38719;51.418;7.286;2023-06-14T10:18:18;5.57;;;2.22;;
52854;SDS011;38719;51.418;7.286;2023-06-14T10:20:55;6.97;;;2.22;;
52854;SDS011;38719;51.418;7.286;2023-06-14T10:23:31;2.92;;;2.20;;
52854;SDS011;38719;51.418;7.286;2023-06-14T10:26:03;2.30;;;2.10;;
52854;SDS011;38719;51.418;7.286;2023-06-14T10:28:31;4.18;;;2.20;;
52854;SDS011;38719;51.418;7.286;2023-06-14T10:31:03;4.10;;;2.08;;
52854;SDS011;38719;51.418;7.286;2023-06-14T10:33:33;2.50;;;2.20;;
52854;SDS011;38719;51.418;7.286;2023-06-14T10:38:57;2.80;;;2.30;;
52854;SDS011;38719;51.418;7.286;2023-06-14T10:41:26;2.78;;;2.15;;
52854;SDS011;38719;51.418;7.286;2023-06-14T10:47:01;3.75;;;2.13;;
52854;SDS011;38719;51.418;7.286;2023-06-14T10:49:37;6.72;;;2.00;;
52854;SDS011;38719;51.418;7.286;2023-06-14T10:52:10;2.25;;;2.05;;
52854;SDS011;38719;51.418;7.286;2023-06-14T10:55:07;2.67;;;2.20;;
52854;SDS011;38719;51.418;7.286;2023-06-14T10:57:38;3.90;;;2.15;;
52854;SDS011;38719;51.418;7.286;2023-06-14T11:00:11;2.00;;;1.80;;
52854;SDS011;38719;51.418;7.286;2023-06-14T11:02:51;2.17;;;1.90;;
52854;SDS011;38719;51.418;7.286;2023-06-14T11:05:41;4.25;;;2.40;;
52854;SDS011;38719;51.418;7.286;2023-06-14T11:08:18;3.35;;;2.10;;
52854;SDS011;38719;51.418;7.286;2023-06-14T11:11:07;3.63;;;2.40;;
52854;SDS011;38719;51.418;7.286;2023-06-14T11:13:36;4.07;;;2.00;;
52854;SDS011;38719;51.418;7.286;2023-06-14T11:16:09;9.55;;;2.10;;
52854;SDS011;38719;51.418;7.286;2023-06-14T11:18:37;2.88;;;2.00;;
52854;SDS011;38719;51.418;7.286;2023-06-14T11:21:06;2.45;;;2.08;;
52854;SDS011;38719;51.418;7.286;2023-06-14T11:23:34;2.63;;;2.10;;
52854;SDS011;38719;51.418;7.286;2023-06-14T11:26:02;4.95;;;2.03;;
52854;SDS011;38719;51.418;7.286;2023-06-14T11:28:37;2.63;;;2.20;;
52854;SDS011;38719;51.418;7.286;2023-06-14T11:31:06;5.93;;;2.30;;
52854;SDS011;38719;51.418;7.286;2023-06-14T11:33:34;7.43;;;2.65;;
52854;SDS011;38719;51.418;7.286;2023-06-14T11:36:02;7.47;;;2.42;;
52854;SDS011;38719;51.418;7.286;2023-06-14T11:38:34;4.20;;;2.53;;
52854;SDS011;38719;51.418;7.286;2023-06-14T11:41:02;7.25;;;2.50;;
52854;SDS011;38719;51.418;7.286;2023-06-14T11:43:30;3.13;;;2.60;;
52854;SDS011;38719;51.418;7.286;2023-06-14T11:45:59;2.83;;;2.40;;
52854;SDS011;38719;51.418;7.286;2023-06-14T11:48:36;5.28;;;2.60;;
52854;SDS011;38719;51.418;7.286;2023-06-14T11:53:33;4.53;;;2.63;;
52854;SDS011;38719;51.418;7.286;2023-06-14T11:56:02;5.22;;;2.63;;
52854;SDS011;38719;51.418;7.286;2023-06-14T11:58:30;12.85;;;2.83;;
52854;SDS011;38719;51.418;7.286;2023-06-14T12:00:58;8.82;;;2.67;;
52854;SDS011;38719;51.418;7.286;2023-06-14T12:03:26;3.30;;;2.45;;
52854;SDS011;38719;51.418;7.286;2023-06-14T12:06:04;4.03;;;3.22;;
52854;SDS011;38719;51.418;7.286;2023-06-14T12:08:35;3.58;;;2.78;;
52854;SDS011;38719;51.418;7.286;2023-06-14T12:11:06;2.58;;;2.35;;
52854;SDS011;38719;51.418;7.286;2023-06-14T12:13:37;4.20;;;2.65;;
52854;SDS011;38719;51.418;7.286;2023-06-14T12:16:06;5.97;;;2.70;;
52854;SDS011;38719;51.418;7.286;2023-06-14T12:18:35;5.22;;;2.80;;
52854;SDS011;38719;51.418;7.286;2023-06-14T12:21:04;3.25;;;2.75;;
52854;SDS011;38719;51.418;7.286;2023-06-14T12:23:41;3.65;;;2.80;;
52854;SDS011;38719;51.418;7.286;2023-06-14T12:26:12;3.53;;;2.45;;
52854;SDS011;38719;51.418;7.286;2023-06-14T12:28:40;5.82;;;2.80;;
52854;SDS011;38719;51.418;7.286;2023-06-14T12:31:08;7.55;;;2.78;;
52854;SDS011;38719;51.418;7.286;2023-06-14T12:33:35;2.60;;;2.25;;
52854;SDS011;38719;51.418;7.286;2023-06-14T12:36:04;3.47;;;2.70;;
52854;SDS011;38719;51.418;7.286;2023-06-14T12:38:32;2.72;;;2.50;;
52854;SDS011;38719;51.418;7.286;2023-06-14T12:41:01;3.92;;;2.67;;
52854;SDS011;38719;51.418;7.286;2023-06-14T12:43:29;5.18;;;2.70;;
52854;SDS011;38719;51.418;7.286;2023-06-14T12:45:57;5.35;;;2.50;;
52854;SDS011;38719;51.418;7.286;2023-06-14T12:48:24;3.53;;;2.80;;
52854;SDS011;38719;51.418;7.286;2023-06-14T12:50:53;4.38;;;2.80;;
52854;SDS011;38719;51.418;7.286;2023-06-14T12:53:20;9.50;;;2.70;;
52854;SDS011;38719;51.418;7.286;2023-06-14T12:55:49;4.50;;;2.70;;
52854;SDS011;38719;51.418;7.286;2023-06-14T12:58:18;3.50;;;2.60;;
52854;SDS011;38719;51.418;7.286;2023-06-14T13:00:46;2.63;;;2.42;;
52854;SDS011;38719;51.418;7.286;2023-06-14T13:03:14;4.00;;;2.40;;
52854;SDS011;38719;51.418;7.286;2023-06-14T13:05:42;7.22;;;2.80;;
52854;SDS011;38719;51.418;7.286;2023-06-14T13:08:09;3.10;;;2.63;;
52854;SDS011;38719;51.418;7.286;2023-06-14T13:10:37;8.95;;;2.53;;
52854;SDS011;38719;51.418;7.286;2023-06-14T13:13:05;3.28;;;2.67;;
52854;SDS011;38719;51.418;7.286;2023-06-14T13:15:35;2.60;;;2.35;;
52854;SDS011;38719;51.418;7.286;2023-06-14T13:18:03;7.00;;;2.60;;
52854;SDS011;38719;51.418;7.286;2023-06-14T13:20:31;4.43;;;2.60;;
52854;SDS011;38719;51.418;7.286;2023-06-14T13:22:58;5.22;;;2.53;;
52854;SDS011;38719;51.418;7.286;2023-06-14T13:25:26;3.55;;;3.10;;
52854;SDS011;38719;51.418;7.286;2023-06-14T13:27:54;3.42;;;2.47;;
52854;SDS011;38719;51.418;7.286;2023-06-14T13:30:21;4.25;;;2.65;;
52854;SDS011;38719;51.418;7.286;2023-06-14T13:32:50;2.92;;;2.50;;
52854;SDS011;38719;51.418;7.286;2023-06-14T13:35:18;4.03;;;2.70;;
52854;SDS011;38719;51.418;7.286;2023-06-14T13:37:46;6.90;;;2.40;;
52854;SDS011;38719;51.418;7.286;2023-06-14T13:40:14;2.97;;;2.42;;
52854;SDS011;38719;51.418;7.286;2023-06-14T13:42:42;7.63;;;2.53;;
52854;SDS011;38719;51.418;7.286;2023-06-14T13:45:10;4.55;;;2.55;;
52854;SDS011;38719;51.418;7.286;2023-06-14T13:47:38;10.50;;;2.90;;
52854;SDS011;38719;51.418;7.286;2023-06-14T13:50:07;7.15;;;3.22;;
52854;SDS011;38719;51.418;7.286;2023-06-14T13:52:36;4.10;;;2.67;;
52854;SDS011;38719;51.418;7.286;2023-06-14T13:55:04;6.95;;;3.20;;
52854;SDS011;38719;51.418;7.286;2023-06-14T13:57:32;6.80;;;3.20;;
52854;SDS011;38719;51.418;7.286;2023-06-14T13:59:59;5.10;;;3.15;;
52854;SDS011;38719;51.418;7.286;2023-06-14T14:02:28;5.32;;;2.70;;
52854;SDS011;38719;51.418;7.286;2023-06-14T14:04:59;6.93;;;2.65;;
52854;SDS011;38719;51.418;7.286;2023-06-14T14:07:28;4.93;;;2.75;;
52854;SDS011;38719;51.418;7.286;2023-06-14T14:09:55;3.13;;;2.70;;
52854;SDS011;38719;51.418;7.286;2023-06-14T14:12:24;3.20;;;2.60;;
52854;SDS011;38719;51.418;7.286;2023-06-14T14:14:52;4.32;;;3.00;;
52854;SDS011;38719;51.418;7.286;2023-06-14T14:17:19;3.20;;;2.60;;
52854;SDS011;38719;51.418;7.286;2023-06-14T14:19:47;3.55;;;2.72;;
52854;SDS011;38719;51.418;7.286;2023-06-14T14:22:15;5.35;;;3.10;;
52854;SDS011;38719;51.418;7.286;2023-06-14T14:24:44;4.97;;;2.80;;
52854;SDS011;38719;51.418;7.286;2023-06-14T14:27:11;9.73;;;3.05;;
52854;SDS011;38719;51.418;7.286;2023-06-14T14:29:39;3.40;;;2.85;;
52854;SDS011;38719;51.418;7.286;2023-06-14T14:32:07;5.90;;;3.13;;
52854;SDS011;38719;51.418;7.286;2023-06-14T14:34:39;3.75;;;2.85;;
52854;SDS011;38719;51.418;7.286;2023-06-14T14:37:06;3.60;;;2.58;;
52854;SDS011;38719;51.418;7.286;2023-06-14T14:39:34;3.15;;;2.70;;
52854;SDS011;38719;51.418;7.286;2023-06-14T14:42:03;4.45;;;2.70;;
52854;SDS011;38719;51.418;7.286;2023-06-14T14:44:33;4.18;;;2.97;;
52854;SDS011;38719;51.418;7.286;2023-06-14T14:47:00;25.73;;;3.78;;
52854;SDS011;38719;51.418;7.286;2023-06-14T14:49:29;45.70;;;6.78;;
52854;SDS011;38719;51.418;7.286;2023-06-14T14:51:56;9.77;;;3.20;;
52854;SDS011;38719;51.418;7.286;2023-06-14T14:54:40;4.60;;;2.83;;
52854;SDS011;38719;51.418;7.286;2023-06-14T14:57:08;3.92;;;2.80;;
52854;SDS011;38719;51.418;7.286;2023-06-14T14:59:36;8.80;;;3.10;;
52854;SDS011;38719;51.418;7.286;2023-06-14T15:02:04;3.97;;;2.83;;
52854;SDS011;38719;51.418;7.286;2023-06-14T15:04:32;7.95;;;3.00;;
52854;SDS011;38719;51.418;7.286;2023-06-14T15:07:00;5.20;;;3.00;;